createdAt,value
2023-10-03T00:01:11.812Z,19.05
2023-10-03T00:03:39.283Z,19.04
2023-10-03T00:06:06.878Z,19.07
2023-10-03T00:08:33.711Z,19.07
2023-10-03T00:11:00.682Z,19.08
2023-10-03T00:13:27.317Z,19.07
2023-10-03T00:15:54.006Z,19.06
2023-10-03T00:18:20.805Z,19.06
2023-10-03T00:20:48.811Z,19.07
2023-10-03T00:23:15.772Z,19.06
2023-10-03T00:25:42.661Z,19.05
2023-10-03T00:28:09.484Z,19.07
2023-10-03T00:30:37.790Z,19.06
2023-10-03T00:33:06.683Z,19.05
2023-10-03T00:35:33.954Z,19.05
2023-10-03T00:38:01.693Z,19.10
2023-10-03T00:40:33.106Z,19.10
2023-10-03T00:43:02.058Z,19.10
2023-10-03T00:45:33.556Z,19.10
2023-10-03T00:48:02.443Z,19.09
2023-10-03T00:50:33.097Z,19.07
2023-10-03T00:53:09.771Z,19.05
2023-10-03T00:55:41.030Z,19.06
2023-10-03T00:58:19.304Z,19.06
2023-10-03T01:00:47.159Z,19.05
2023-10-03T01:03:30.401Z,19.06
2023-10-03T01:06:06.191Z,19.06
2023-10-03T01:08:37.639Z,19.06
2023-10-03T01:11:06.243Z,19.06
2023-10-03T01:13:32.949Z,19.06
2023-10-03T01:15:59.639Z,19.07
2023-10-03T01:18:28.888Z,19.08
2023-10-03T01:21:02.132Z,19.10
2023-10-03T01:23:38.073Z,19.07
2023-10-03T01:26:06.032Z,19.07
2023-10-03T01:28:32.690Z,19.08
2023-10-03T01:30:59.362Z,19.07
2023-10-03T01:33:29.880Z,19.05
2023-10-03T01:35:57.498Z,19.05
2023-10-03T01:38:24.345Z,19.08
2023-10-03T01:40:53.247Z,19.09
2023-10-03T01:43:20.599Z,19.08
2023-10-03T01:45:47.290Z,19.04
2023-10-03T01:48:14.166Z,19.06
2023-10-03T01:50:40.945Z,19.09
2023-10-03T01:53:07.855Z,19.08
2023-10-03T01:55:35.214Z,19.09
2023-10-03T01:58:02.081Z,19.07
2023-10-03T02:00:29.534Z,19.05
2023-10-03T02:03:06.817Z,19.05
2023-10-03T02:05:35.938Z,19.05
2023-10-03T02:08:08.979Z,19.03
2023-10-03T02:10:36.491Z,19.01
2023-10-03T02:13:13.511Z,19.01
2023-10-03T02:15:40.600Z,19.01
2023-10-03T02:18:10.227Z,19.01
2023-10-03T02:20:49.103Z,19.02
2023-10-03T02:23:20.812Z,19.02
2023-10-03T02:25:49.515Z,19.01
2023-10-03T02:28:17.838Z,19.02
2023-10-03T02:30:49.963Z,19.02
2023-10-03T02:33:18.264Z,19.01
2023-10-03T02:35:51.218Z,19.01
2023-10-03T02:38:25.692Z,19.02
2023-10-03T02:40:56.101Z,19.04
2023-10-03T02:43:23.085Z,19.04
2023-10-03T02:45:49.830Z,19.05
2023-10-03T02:48:17.192Z,19.05
2023-10-03T02:50:48.719Z,19.07
2023-10-03T02:53:22.115Z,19.08
2023-10-03T02:55:50.052Z,19.11
2023-10-03T02:58:21.130Z,19.12
2023-10-03T03:00:59.180Z,19.14
2023-10-03T03:03:34.874Z,19.16
2023-10-03T03:06:12.586Z,19.22
2023-10-03T03:08:41.807Z,19.21
2023-10-03T03:11:10.501Z,19.26
2023-10-03T03:13:38.226Z,19.28
2023-10-03T03:16:05.946Z,19.31
2023-10-03T03:18:48.945Z,19.32
2023-10-03T03:21:17.935Z,19.37
2023-10-03T03:23:57.173Z,19.35
2023-10-03T03:26:30.780Z,19.35
2023-10-03T03:28:57.741Z,19.35
2023-10-03T03:31:27.332Z,19.38
2023-10-03T03:33:59.103Z,19.35
2023-10-03T03:36:37.035Z,19.37
2023-10-03T03:39:07.694Z,19.37
2023-10-03T03:41:35.988Z,19.35
2023-10-03T03:44:03.092Z,19.36
2023-10-03T03:46:31.242Z,19.34
2023-10-03T03:49:00.149Z,19.30
2023-10-03T03:51:27.236Z,19.32
2023-10-03T03:53:54.402Z,19.28
2023-10-03T03:56:21.340Z,19.26
2023-10-03T03:58:50.030Z,19.25
2023-10-03T04:01:21.379Z,19.22
2023-10-03T04:03:51.741Z,19.20
2023-10-03T04:06:21.776Z,19.18
2023-10-03T04:09:06.226Z,19.16
2023-10-03T04:11:34.334Z,19.16
2023-10-03T04:14:02.429Z,19.15
2023-10-03T04:16:29.785Z,19.13
2023-10-03T04:18:56.982Z,19.11
2023-10-03T04:21:28.087Z,19.09
2023-10-03T04:23:55.770Z,19.09
2023-10-03T04:26:22.455Z,19.10
2023-10-03T04:28:49.025Z,19.10
2023-10-03T04:31:15.744Z,19.10
2023-10-03T04:33:45.119Z,19.10
2023-10-03T04:36:12.977Z,19.11
2023-10-03T04:38:41.895Z,19.10
2023-10-03T04:41:10.491Z,19.11
2023-10-03T04:43:37.776Z,19.14
2023-10-03T04:46:05.996Z,19.14
2023-10-03T04:48:33.250Z,19.17
2023-10-03T04:51:00.905Z,19.19
2023-10-03T04:53:27.975Z,19.21
2023-10-03T04:55:54.713Z,19.20
2023-10-03T04:58:23.606Z,19.23
2023-10-03T05:00:50.934Z,19.29
2023-10-03T05:03:21.060Z,19.26
2023-10-03T05:05:51.262Z,19.26
2023-10-03T05:08:20.130Z,19.24
2023-10-03T05:10:48.416Z,19.23
2023-10-03T05:13:15.571Z,19.22
2023-10-03T05:15:42.405Z,19.21
2023-10-03T05:18:09.208Z,19.20
2023-10-03T05:20:39.581Z,19.22
2023-10-03T05:23:07.259Z,19.24
2023-10-03T05:25:44.407Z,19.31
2023-10-03T05:28:15.075Z,19.31
2023-10-03T05:30:42.229Z,19.30
2023-10-03T05:33:09.774Z,19.28
2023-10-03T05:35:37.335Z,19.32
2023-10-03T05:38:10.782Z,19.31
2023-10-03T05:40:38.209Z,19.33
2023-10-03T05:43:06.427Z,19.38
2023-10-03T05:45:36.594Z,19.41
2023-10-03T05:48:05.290Z,19.43
2023-10-03T05:50:34.361Z,19.42
2023-10-03T05:53:01.826Z,19.57
2023-10-03T05:55:28.479Z,19.57
2023-10-03T05:57:55.349Z,19.60
2023-10-03T06:00:22.746Z,19.61
2023-10-03T06:02:49.872Z,19.58
2023-10-03T06:05:17.094Z,19.59
2023-10-03T06:07:46.695Z,19.55
2023-10-03T06:10:17.787Z,19.54
2023-10-03T06:12:45.288Z,19.54
2023-10-03T06:15:14.626Z,19.53
2023-10-03T06:17:42.061Z,19.52
2023-10-03T06:20:11.467Z,19.53
2023-10-03T06:22:40.561Z,19.49
2023-10-03T06:25:08.757Z,19.51
2023-10-03T06:27:35.426Z,19.51
2023-10-03T06:30:02.503Z,19.52
2023-10-03T06:32:29.314Z,19.53
2023-10-03T06:34:55.956Z,19.55
2023-10-03T06:37:25.161Z,19.53
2023-10-03T06:39:51.983Z,19.50
2023-10-03T06:42:20.040Z,19.49
2023-10-03T06:44:46.942Z,19.51
2023-10-03T06:47:14.219Z,19.49
2023-10-03T06:49:40.915Z,19.47
2023-10-03T06:52:07.602Z,19.47
2023-10-03T06:54:34.190Z,19.50
2023-10-03T06:57:00.920Z,19.50
2023-10-03T06:59:27.639Z,19.46
2023-10-03T07:01:54.295Z,19.44
2023-10-03T07:04:21.707Z,19.45
2023-10-03T07:06:51.983Z,19.43
2023-10-03T07:09:20.252Z,19.43
2023-10-03T07:11:50.455Z,19.40
2023-10-03T07:14:17.911Z,19.40
2023-10-03T07:16:48.176Z,19.39
2023-10-03T07:19:17.912Z,19.47
2023-10-03T07:21:44.617Z,19.44
2023-10-03T07:24:11.322Z,19.43
2023-10-03T07:26:38.137Z,19.50
2023-10-03T07:29:06.059Z,19.45
2023-10-03T07:31:36.128Z,19.54
2023-10-03T07:34:02.967Z,19.50
2023-10-03T07:36:29.795Z,19.47
2023-10-03T07:38:56.490Z,19.41
2023-10-03T07:41:23.699Z,19.39
2023-10-03T07:43:53.661Z,19.44
2023-10-03T07:46:22.286Z,19.43
2023-10-03T07:48:54.236Z,19.41
2023-10-03T07:51:31.252Z,19.39
2023-10-03T07:53:58.356Z,19.36
2023-10-03T07:56:32.030Z,19.36
2023-10-03T07:59:03.829Z,19.36
2023-10-03T08:01:44.843Z,19.37
2023-10-03T08:04:19.282Z,19.35
2023-10-03T08:06:46.018Z,19.36
2023-10-03T08:09:12.681Z,19.30
2023-10-03T08:11:39.438Z,19.36
2023-10-03T08:14:19.166Z,19.41
2023-10-03T08:16:47.369Z,19.42
2023-10-03T08:19:26.364Z,19.36
2023-10-03T08:21:54.656Z,19.39
2023-10-03T08:24:30.066Z,19.35
2023-10-03T08:27:01.171Z,19.35
2023-10-03T08:29:29.008Z,19.34
2023-10-03T08:32:01.218Z,19.28
2023-10-03T08:34:31.829Z,19.30
2023-10-03T08:37:03.010Z,19.31
2023-10-03T08:39:33.860Z,19.23
2023-10-03T08:42:28.616Z,19.24
2023-10-03T08:44:59.863Z,19.21
2023-10-03T08:47:35.534Z,19.20
2023-10-03T08:50:16.002Z,19.21
2023-10-03T08:52:51.479Z,19.20
2023-10-03T08:55:22.650Z,19.07
2023-10-03T08:57:52.304Z,19.05
2023-10-03T09:00:26.880Z,19.06
2023-10-03T09:03:11.219Z,19.04
2023-10-03T09:05:41.640Z,19.04
2023-10-03T09:08:13.538Z,19.03
2023-10-03T09:10:53.397Z,19.09
2023-10-03T09:13:25.030Z,19.09
2023-10-03T09:16:02.740Z,19.12
2023-10-03T09:18:42.406Z,19.11
2023-10-03T09:21:17.351Z,19.14
2023-10-03T09:24:16.500Z,19.13
2023-10-03T09:26:49.487Z,19.14
2023-10-03T09:29:31.832Z,19.12
2023-10-03T09:32:14.992Z,19.11
2023-10-03T09:34:43.707Z,19.08
2023-10-03T09:37:11.858Z,19.05
2023-10-03T09:39:52.799Z,19.08
2023-10-03T09:42:25.112Z,19.11
2023-10-03T09:44:53.247Z,19.02
2023-10-03T09:47:20.375Z,18.98
2023-10-03T09:49:50.337Z,18.97
2023-10-03T09:52:27.708Z,18.78
2023-10-03T09:55:00.038Z,18.58
2023-10-03T09:57:31.317Z,18.41
2023-10-03T09:59:59.434Z,18.22
2023-10-03T10:02:47.519Z,18.27
2023-10-03T10:05:23.609Z,18.17
2023-10-03T10:08:22.073Z,18.07
2023-10-03T10:11:10.808Z,18.09
2023-10-03T10:13:44.191Z,18.09
2023-10-03T10:16:12.468Z,18.12
2023-10-03T10:18:45.631Z,18.19
2023-10-03T10:21:21.559Z,18.23
2023-10-03T10:24:17.014Z,18.34
2023-10-03T10:26:50.499Z,18.36
2023-10-03T10:29:25.834Z,18.45
2023-10-03T10:31:59.774Z,18.42
2023-10-03T10:34:31.012Z,18.57
2023-10-03T10:37:16.502Z,18.54
2023-10-03T10:40:18.899Z,18.54
2023-10-03T10:43:00.666Z,18.59
2023-10-03T10:45:29.154Z,18.56
2023-10-03T10:47:57.255Z,18.45
2023-10-03T10:50:30.012Z,18.33
2023-10-03T10:52:58.961Z,18.33
2023-10-03T10:55:26.957Z,18.28
2023-10-03T10:58:09.061Z,18.04
2023-10-03T11:00:36.365Z,18.06
2023-10-03T11:03:04.478Z,18.16
2023-10-03T11:05:48.572Z,18.11
2023-10-03T11:08:16.371Z,17.98
2023-10-03T11:10:54.105Z,18.01
2023-10-03T11:13:25.286Z,17.88
2023-10-03T11:15:53.321Z,18.14
2023-10-03T11:18:33.822Z,18.21
2023-10-03T11:21:05.163Z,18.16
2023-10-03T11:23:32.473Z,18.25
2023-10-03T11:26:01.270Z,18.28
2023-10-03T11:28:31.117Z,18.25
2023-10-03T11:31:05.825Z,18.38
2023-10-03T11:33:43.085Z,18.42
2023-10-03T11:36:10.041Z,18.45
2023-10-03T11:38:52.480Z,18.59
2023-10-03T11:41:32.454Z,18.47
2023-10-03T11:43:59.165Z,18.33
2023-10-03T11:46:26.667Z,18.27
2023-10-03T11:49:00.848Z,18.22
2023-10-03T11:51:27.648Z,18.19
2023-10-03T11:53:54.540Z,18.16
2023-10-03T11:56:21.651Z,18.20
2023-10-03T11:58:48.376Z,18.12
2023-10-03T12:01:15.104Z,18.08
2023-10-03T12:03:41.961Z,18.06
2023-10-03T12:06:09.688Z,18.01
2023-10-03T12:08:42.447Z,18.00
2023-10-03T12:11:11.889Z,17.97
2023-10-03T12:13:38.999Z,18.07
2023-10-03T12:16:06.136Z,18.01
2023-10-03T12:18:33.312Z,17.88
2023-10-03T12:21:00.439Z,17.91
2023-10-03T12:23:27.420Z,17.86
2023-10-03T12:25:54.554Z,17.86
2023-10-03T12:28:23.213Z,17.84
2023-10-03T12:30:52.416Z,17.75
2023-10-03T12:33:20.865Z,17.67
2023-10-03T12:35:47.966Z,17.65
2023-10-03T12:38:17.244Z,17.65
2023-10-03T12:40:48.614Z,17.71
2023-10-03T12:43:15.324Z,17.61
2023-10-03T12:45:43.762Z,17.54
2023-10-03T12:48:11.564Z,17.33
2023-10-03T12:50:38.419Z,17.38
2023-10-03T12:53:06.077Z,17.54
2023-10-03T12:55:34.919Z,17.62
2023-10-03T12:58:04.823Z,17.61
2023-10-03T13:00:31.494Z,17.79
2023-10-03T13:03:01.276Z,17.75
2023-10-03T13:05:28.288Z,17.73
2023-10-03T13:07:55.033Z,17.86
2023-10-03T13:10:24.451Z,18.01
2023-10-03T13:12:55.857Z,18.15
2023-10-03T13:15:23.351Z,18.12
2023-10-03T13:17:53.450Z,18.05
2023-10-03T13:20:20.735Z,17.91
2023-10-03T13:22:48.853Z,17.73
2023-10-03T13:25:24.007Z,17.55
2023-10-03T13:27:51.922Z,17.24
2023-10-03T13:30:26.694Z,16.93
2023-10-03T13:32:56.967Z,16.72
2023-10-03T13:35:24.612Z,16.74
2023-10-03T13:37:52.367Z,16.79
2023-10-03T13:40:19.357Z,16.82
2023-10-03T13:42:49.310Z,16.81
2023-10-03T13:45:17.205Z,17.01
2023-10-03T13:47:46.685Z,16.99
2023-10-03T13:50:14.679Z,16.99
2023-10-03T13:52:44.173Z,17.05
2023-10-03T13:55:12.348Z,17.07
2023-10-03T13:57:41.635Z,16.84
2023-10-03T14:00:14.324Z,16.98
2023-10-03T14:02:46.364Z,16.85
2023-10-03T14:05:13.850Z,16.75
2023-10-03T14:07:40.575Z,16.45
2023-10-03T14:10:08.227Z,16.44
2023-10-03T14:12:35.248Z,16.63
2023-10-03T14:15:03.021Z,16.55
2023-10-03T14:17:30.140Z,16.56
2023-10-03T14:19:57.067Z,16.54
2023-10-03T14:22:23.742Z,16.75
2023-10-03T14:24:50.514Z,16.81
2023-10-03T14:27:17.284Z,16.87
2023-10-03T14:29:44.644Z,16.92
2023-10-03T14:32:12.326Z,16.93
2023-10-03T14:34:42.418Z,16.74
2023-10-03T14:37:10.792Z,16.44
2023-10-03T14:39:37.608Z,16.31
2023-10-03T14:42:04.537Z,16.33
2023-10-03T14:44:31.271Z,16.24
2023-10-03T14:46:58.944Z,16.09
2023-10-03T14:49:26.246Z,16.19
2023-10-03T14:51:53.869Z,16.18
2023-10-03T14:54:20.643Z,16.20
2023-10-03T14:56:52.104Z,16.17
2023-10-03T14:59:23.293Z,16.26
2023-10-03T15:01:50.217Z,16.19
2023-10-03T15:04:19.037Z,16.10
2023-10-03T15:06:45.859Z,16.09
2023-10-03T15:09:13.052Z,16.04
2023-10-03T15:11:40.255Z,16.25
2023-10-03T15:14:07.351Z,16.15
2023-10-03T15:16:34.550Z,16.09
2023-10-03T15:19:04.452Z,15.85
2023-10-03T15:21:31.445Z,15.80
2023-10-03T15:23:58.797Z,15.78
2023-10-03T15:26:25.505Z,15.77
2023-10-03T15:28:53.416Z,15.73
2023-10-03T15:31:24.809Z,15.75
2023-10-03T15:33:53.844Z,15.69
2023-10-03T15:36:21.415Z,15.78
2023-10-03T15:38:48.435Z,15.75
2023-10-03T15:41:17.977Z,15.87
2023-10-03T15:43:44.815Z,16.04
2023-10-03T15:46:11.925Z,16.10
2023-10-03T15:48:39.371Z,16.11
2023-10-03T15:51:14.936Z,16.19
2023-10-03T15:53:44.648Z,16.19
2023-10-03T15:56:14.485Z,16.12
2023-10-03T15:58:42.667Z,16.07
2023-10-03T16:01:16.791Z,15.88
2023-10-03T16:03:46.337Z,15.96
2023-10-03T16:06:13.916Z,15.99
2023-10-03T16:08:44.300Z,16.05
2023-10-03T16:11:12.880Z,15.93
2023-10-03T16:13:39.993Z,15.96
2023-10-03T16:16:06.673Z,15.97
2023-10-03T16:18:34.277Z,15.87
2023-10-03T16:21:05.896Z,16.07
2023-10-03T16:23:33.734Z,16.03
2023-10-03T16:26:00.913Z,16.11
2023-10-03T16:28:27.571Z,16.08
2023-10-03T16:30:54.261Z,16.07
2023-10-03T16:33:22.263Z,15.91
2023-10-03T16:35:49.501Z,16.04
2023-10-03T16:38:16.329Z,15.98
2023-10-03T16:40:42.937Z,16.04
2023-10-03T16:43:09.869Z,16.07
2023-10-03T16:45:37.924Z,16.04
2023-10-03T16:48:09.278Z,16.08
2023-10-03T16:50:39.592Z,15.97
2023-10-03T16:53:07.441Z,15.90
2023-10-03T16:55:34.436Z,15.96
2023-10-03T16:58:04.017Z,15.94
2023-10-03T17:00:31.491Z,15.89
2023-10-03T17:02:58.537Z,16.02
2023-10-03T17:05:25.353Z,15.75
2023-10-03T17:07:52.128Z,15.88
2023-10-03T17:10:20.191Z,16.08
2023-10-03T17:12:47.360Z,16.05
2023-10-03T17:15:15.543Z,16.11
2023-10-03T17:17:42.813Z,15.96
2023-10-03T17:20:12.608Z,15.90
2023-10-03T17:22:40.433Z,16.09
2023-10-03T17:25:07.883Z,15.91
2023-10-03T17:27:35.975Z,15.97
2023-10-03T17:30:07.776Z,15.87
2023-10-03T17:32:34.556Z,15.73
2023-10-03T17:35:01.805Z,15.75
2023-10-03T17:37:28.888Z,15.66
2023-10-03T17:39:56.370Z,15.55
2023-10-03T17:42:23.391Z,15.38
2023-10-03T17:44:50.980Z,15.44
2023-10-03T17:47:19.246Z,15.52
2023-10-03T17:49:45.908Z,15.47
2023-10-03T17:52:16.644Z,15.52
2023-10-03T17:54:44.606Z,15.67
2023-10-03T17:57:11.978Z,15.57
2023-10-03T17:59:38.825Z,15.44
2023-10-03T18:02:05.668Z,15.35
2023-10-03T18:04:34.004Z,15.38
2023-10-03T18:07:00.789Z,15.22
2023-10-03T18:09:28.597Z,15.28
2023-10-03T18:11:56.538Z,15.41
2023-10-03T18:14:24.032Z,15.41
2023-10-03T18:16:50.773Z,15.36
2023-10-03T18:19:17.784Z,15.33
2023-10-03T18:21:45.362Z,15.35
2023-10-03T18:24:12.433Z,15.36
2023-10-03T18:26:39.385Z,15.18
2023-10-03T18:29:06.022Z,15.30
2023-10-03T18:31:33.875Z,15.33
2023-10-03T18:34:00.845Z,15.23
2023-10-03T18:36:29.736Z,15.29
2023-10-03T18:38:56.552Z,15.04
2023-10-03T18:41:23.408Z,15.05
2023-10-03T18:43:50.696Z,15.02
2023-10-03T18:46:17.436Z,14.99
2023-10-03T18:48:44.848Z,15.12
2023-10-03T18:51:11.973Z,15.16
2023-10-03T18:53:40.290Z,15.26
2023-10-03T18:56:11.322Z,15.33
2023-10-03T18:58:38.484Z,15.18
2023-10-03T19:01:46.024Z,15.24
2023-10-03T19:04:16.059Z,14.95
2023-10-03T19:06:43.055Z,14.96
2023-10-03T19:09:13.808Z,15.11
2023-10-03T19:11:41.171Z,14.91
2023-10-03T19:14:07.814Z,15.06
2023-10-03T19:16:35.456Z,14.96
2023-10-03T19:19:02.417Z,14.95
2023-10-03T19:21:29.701Z,15.00
2023-10-03T19:23:58.423Z,14.98
2023-10-03T19:26:25.406Z,15.06
2023-10-03T19:28:52.100Z,15.01
2023-10-03T19:31:20.220Z,14.97
2023-10-03T19:33:47.660Z,15.00
2023-10-03T19:36:15.366Z,14.87
2023-10-03T19:38:42.513Z,14.79
2023-10-03T19:41:13.816Z,14.80
2023-10-03T19:43:41.961Z,14.76
2023-10-03T19:46:15.085Z,14.84
2023-10-03T19:48:42.266Z,14.79
2023-10-03T19:51:09.349Z,14.94
2023-10-03T19:53:36.140Z,14.90
2023-10-03T19:56:10.516Z,14.94
2023-10-03T19:58:39.505Z,14.95
2023-10-03T20:01:09.280Z,14.88
2023-10-03T20:03:36.770Z,15.00
2023-10-03T20:06:04.323Z,14.89
2023-10-03T20:08:31.130Z,14.86
2023-10-03T20:10:57.871Z,15.00
2023-10-03T20:13:24.728Z,14.87
2023-10-03T20:15:51.809Z,14.96
2023-10-03T20:18:18.668Z,15.08
2023-10-03T20:20:45.726Z,15.00
2023-10-03T20:23:12.636Z,15.03
2023-10-03T20:25:41.204Z,14.96
2023-10-03T20:28:08.275Z,15.08
2023-10-03T20:30:35.089Z,15.06
2023-10-03T20:33:02.659Z,15.04
2023-10-03T20:35:29.791Z,14.97
2023-10-03T20:37:56.502Z,15.01
2023-10-03T20:40:23.247Z,14.99
2023-10-03T20:42:50.158Z,15.02
2023-10-03T20:45:16.940Z,15.02
2023-10-03T20:47:44.325Z,14.93
2023-10-03T20:50:11.883Z,15.00
2023-10-03T20:52:41.661Z,15.00
2023-10-03T20:55:08.457Z,15.01
2023-10-03T20:57:36.749Z,15.00
2023-10-03T21:00:04.724Z,14.96
2023-10-03T21:02:31.463Z,14.97
2023-10-03T21:04:58.912Z,14.90
2023-10-03T21:07:25.893Z,14.84
2023-10-03T21:09:55.271Z,15.00
2023-10-03T21:12:23.872Z,15.00
2023-10-03T21:14:51.157Z,14.84
2023-10-03T21:17:17.872Z,14.92
2023-10-03T21:19:44.646Z,15.10
2023-10-03T21:22:11.255Z,15.11
2023-10-03T21:24:37.871Z,15.24
2023-10-03T21:27:04.583Z,15.11
2023-10-03T21:29:33.378Z,15.10
2023-10-03T21:32:00.061Z,15.08
2023-10-03T21:34:27.259Z,15.14
2023-10-03T21:36:55.458Z,15.25
2023-10-03T21:39:23.228Z,15.11
2023-10-03T21:41:50.148Z,15.04
2023-10-03T21:44:17.098Z,15.04
2023-10-03T21:46:44.219Z,15.04
2023-10-03T21:49:10.927Z,15.01
2023-10-03T21:51:38.636Z,15.07
2023-10-03T21:54:05.653Z,15.17
2023-10-03T21:56:32.349Z,15.07
2023-10-03T21:58:59.175Z,14.91
2023-10-03T22:01:27.790Z,14.85
2023-10-03T22:03:55.527Z,14.81
2023-10-03T22:06:22.346Z,14.99
2023-10-03T22:08:49.008Z,14.99
2023-10-03T22:11:19.114Z,14.97
2023-10-03T22:13:45.881Z,14.96
2023-10-03T22:16:12.726Z,14.87
2023-10-03T22:18:39.465Z,14.92
2023-10-03T22:21:06.302Z,15.00
2023-10-03T22:23:32.934Z,14.81
2023-10-03T22:25:59.545Z,14.83
2023-10-03T22:28:26.266Z,14.83
2023-10-03T22:30:52.894Z,14.74
2023-10-03T22:33:19.670Z,14.68
2023-10-03T22:35:46.393Z,14.60
2023-10-03T22:38:15.021Z,14.64
2023-10-03T22:40:42.935Z,14.60
2023-10-03T22:43:09.652Z,14.69
2023-10-03T22:45:36.453Z,14.74
2023-10-03T22:48:03.683Z,14.80
2023-10-03T22:50:30.664Z,14.62
2023-10-03T22:52:57.580Z,14.57
2023-10-03T22:55:24.214Z,14.55
2023-10-03T22:57:50.917Z,14.60
2023-10-03T23:00:17.929Z,14.72
2023-10-03T23:02:44.838Z,14.53
2023-10-03T23:05:11.612Z,14.50
2023-10-03T23:07:40.847Z,14.61
2023-10-03T23:10:10.934Z,14.46
2023-10-03T23:12:40.428Z,14.44
2023-10-03T23:15:11.244Z,14.45
2023-10-03T23:17:38.925Z,14.52
2023-10-03T23:20:08.976Z,14.34
2023-10-03T23:22:35.861Z,14.37
2023-10-03T23:25:02.640Z,14.27
2023-10-03T23:27:29.366Z,14.20
2023-10-03T23:29:57.581Z,14.31
2023-10-03T23:32:25.290Z,14.22
2023-10-03T23:34:55.280Z,14.17
2023-10-03T23:37:21.960Z,14.18
2023-10-03T23:39:52.721Z,14.23
2023-10-03T23:42:19.787Z,14.30
2023-10-03T23:44:48.585Z,14.23
2023-10-03T23:47:15.388Z,14.18
2023-10-03T23:49:44.363Z,14.23
2023-10-03T23:52:14.985Z,14.15
2023-10-03T23:54:41.776Z,14.26
2023-10-03T23:57:13.401Z,14.35
2023-10-03T23:59:41.061Z,14.23
